ADDS TAF Board (Experimental) INFO Settings
IDs: Format: Expanded Condensed

KATL - Atlanta/Hartsfield-J, GA, US

Issued at 1740 UTC 01 May 2016
Updated at: 1921 UTC 01 May 2016
Time1852Z 01/20Z 01/21Z 01/22Z 01/23Z 02/00Z 02/01Z 02/02Z 02/03Z 02/04Z 02/05Z 02/06Z 02/07Z 02/08Z
Type OBS PRVL
  [TEMP]  
PRVL
  [TEMP]  
PRVL PRVL PRVL PRVL PRVL PRVL PRVL PRVL PRVL PRVL PRVL
VIS 10 >6
  [4]  
>6
  [4]  
>6 >6 >6 >6 >6 >6 >6 >6 >6 >6 >6
CIG 220 60
  [25]  
60
  [25]  
60 40 40 40 250 250 250 250 250 250 250
Cover OVC BKN
  [BKN]  
BKN
  [BKN]  
BKN OVC OVC OVC BKN BKN BKN BKN BKN BKN BKN
FltCat VFR VFR
  [MVFR]  
VFR
  [MVFR]  
VFR VFR VFR VFR VFR VFR VFR VFR VFR VFR VFR
WX -- VCSH
  [TSRA BR]  
VCSH
  [TSRA BR]  
VCSH VCSH VCSH VCSH -- -- -- -- -- -- --
WDir 180 220
[220]
220
[220]
220 230 230 230 240 240 240 240 240 240 240
WSpd 8 10
  [10]  
10
  [10]  
10 8 8 8 5 5 5 5 5 5 5
WGst -- --
  [--]  
--
  [--]  
-- -- -- -- -- -- -- -- -- -- --
R08/26
XWnd -8 -8 -8 -8 -5 -5 -5 -3 -3 -3 -3 -3 -3 -3
XGst -- 0 0 -- -- -- -- -- -- -- -- -- -- --
HWnd 0 -6 -6 -6 -6 -6 -6 -4 -4 -4 -4 -4 -4 -4
HGst -- 0 0 -- -- -- -- -- -- -- -- -- -- --
R09/27
XWnd -8 -8 -8 -8 -5 -5 -5 -3 -3 -3 -3 -3 -3 -3
XGst -- 0 0 -- -- -- -- -- -- -- -- -- -- --
HWnd 0 -6 -6 -6 -6 -6 -6 -4 -4 -4 -4 -4 -4 -4
HGst -- 0 0 -- -- -- -- -- -- -- -- -- -- --
R10/28
XWnd -8 -8 -8 -8 -5 -5 -5 -3 -3 -3 -3 -3 -3 -3
XGst -- 0 0 -- -- -- -- -- -- -- -- -- -- --
HWnd 0 -6 -6 -6 -6 -6 -6 -4 -4 -4 -4 -4 -4 -4
HGst -- 0 0 -- -- -- -- -- -- -- -- -- -- --

NOTE: TEMPO conditions in [brackets]. Keep in mind TEMPO conditions might be better (lower impact) than prevailing conditions.

Raw TAF
KATL 011740Z 0118/0224 22010KT P6SM VCSH SCT025 BKN060
  TEMPO 0119/0122 4SM TSRA BR BKN025CB
  FM012300 23008KT P6SM VCSH OVC040
  FM020200 24005KT P6SM SCT060 BKN250
  FM021200 22006KT P6SM SCT030 BKN150
  FM021500 22008KT P6SM SCT040 BKN150
  PROB30 0219/0223 4SM TSRA BR BKN025CB


Raw METAR
KATL 011852Z 18008KT 10SM SCT032 SCT040 OVC220 28/17 A3001 RMK AO2 SLP153 T02780172
KATL 011752Z 20006KT 10SM FEW030 SCT040TCU SCT070 BKN220 28/17 A3003 RMK AO2 SLP159 CB DSNT NE TCU NW T02780172 10283 20194 58004
KATL 011652Z 21010KT 10SM SCT026 SCT035 BKN070 27/19 A3003 RMK AO2 SLP161 CB DSNT NW-N MDT CU ALQDS T02670194

METAR Board
Radar Display
Forecast Discussion

TAF Board Legend

Potential Impact
Threat None Slight Moderate High
Visibility (sm) ≥5.1 5.1>X≥3 3>X≥1 <1
Ceiling (100 ft) ≥30.1 30.1>X≥10 10>X≥5 <5
Wind Speed (kt) <10 10≤X<20 20≤X<30 ≥30
Wind Gust (kt) <15 15≤X<25 25≤X<35 ≥35
Weather No Wx Reported VCTS,-TS,-FZRA,SN TS,FZRA +TS,+FZRA,+SN